Time;durP1;ratioP1;P1;durP2;ratioP2;P2;SDS_P1;SDS_P2;PMS_P1;PMS_P2;Temp;Humidity;BMP_temperature;BMP_pressure;BME280_temperature;BME280_humidity;BME280_pressure;Samples;Min_cycle;Max_cycle;Signal;HPM_P1;HPM_P2
2021/09/05 00:00:29;;;;;;;15.52;6.22;;;;;;;;;;5094732;28;20044;-73
2021/09/05 00:02:55;;;;;;;11.32;5.80;;;;;;;;;;5094930;28;20024;-72
2021/09/05 00:05:21;;;;;;;17.77;6.50;;;;;;;;;;5095214;28;20027;-69
2021/09/05 00:07:47;;;;;;;19.17;6.00;;;;;;;;;;5096835;28;20495;-70
2021/09/05 00:10:14;;;;;;;17.02;6.07;;;;;;;;;;5094453;28;20100;-73
2021/09/05 00:12:41;;;;;;;19.05;7.05;;;;;;;;;;5098453;28;20035;-73
2021/09/05 00:15:09;;;;;;;16.02;6.05;;;;;;;;;;5094646;28;20468;-73
2021/09/05 00:17:35;;;;;;;16.70;6.68;;;;;;;;;;5095243;28;20115;-69
2021/09/05 00:20:01;;;;;;;13.38;5.45;;;;;;;;;;5097482;28;20023;-74
2021/09/05 00:22:27;;;;;;;13.45;7.07;;;;;;;;;;5097423;28;20032;-72
2021/09/05 00:24:53;;;;;;;18.60;6.70;;;;;;;;;;5095284;28;20024;-74
2021/09/05 00:27:20;;;;;;;19.63;6.80;;;;;;;;;;5098580;28;20089;-72
2021/09/05 00:29:46;;;;;;;16.92;6.68;;;;;;;;;;5091925;28;20032;-73
2021/09/05 00:32:12;;;;;;;13.50;6.53;;;;;;;;;;5093974;28;20017;-73
2021/09/05 00:34:38;;;;;;;14.45;6.75;;;;;;;;;;5093707;28;20028;-73
2021/09/05 00:37:04;;;;;;;14.55;5.95;;;;;;;;;;5093967;28;20020;-74
2021/09/05 00:39:30;;;;;;;18.85;6.70;;;;;;;;;;5086069;28;20034;-74
2021/09/05 00:41:56;;;;;;;11.40;6.75;;;;;;;;;;5097953;28;20265;-74
2021/09/05 00:44:23;;;;;;;15.13;6.07;;;;;;;;;;5092946;28;20542;-72
2021/09/05 00:46:49;;;;;;;17.67;6.38;;;;;;;;;;5094110;28;20073;-71
2021/09/05 00:49:15;;;;;;;14.25;6.15;;;;;;;;;;5094820;28;20390;-69
2021/09/05 00:51:42;;;;;;;15.13;6.50;;;;;;;;;;5095365;28;20019;-74
2021/09/05 00:54:09;;;;;;;13.60;6.40;;;;;;;;;;5094410;28;20034;-71
2021/09/05 00:56:36;;;;;;;20.98;6.53;;;;;;;;;;5091096;28;20035;-73
2021/09/05 00:59:06;;;;;;;16.15;7.22;;;;;;;;;;5082838;28;20034;-72
2021/09/05 01:01:32;;;;;;;12.23;6.35;;;;;;;;;;5092543;28;20024;-74
2021/09/05 01:03:59;;;;;;;17.35;6.45;;;;;;;;;;5098626;28;20039;-73
2021/09/05 01:06:25;;;;;;;22.40;6.57;;;;;;;;;;5091816;28;20024;-71
2021/09/05 01:08:52;;;;;;;16.60;6.55;;;;;;;;;;5095115;28;20475;-70
2021/09/05 01:11:18;;;;;;;18.15;6.15;;;;;;;;;;5093799;28;20383;-73
2021/09/05 01:13:45;;;;;;;15.55;7.50;;;;;;;;;;5096396;28;20040;-73
2021/09/05 01:16:23;;;;;;;15.55;6.65;;;;;;;;;;5096630;28;20071;-73
2021/09/05 01:18:50;;;;;;;11.88;6.32;;;;;;;;;;5090549;28;20514;-73
2021/09/05 01:21:16;;;;;;;16.20;6.03;;;;;;;;;;5096745;28;20036;-72
2021/09/05 01:23:42;;;;;;;14.38;5.88;;;;;;;;;;5094309;28;20119;-72
2021/09/05 01:26:11;;;;;;;14.20;6.70;;;;;;;;;;5090987;28;20016;-72
2021/09/05 01:28:37;;;;;;;9.48;6.25;;;;;;;;;;5088172;28;20028;-74
2021/09/05 01:31:04;;;;;;;13.75;6.22;;;;;;;;;;5098120;28;20024;-73
2021/09/05 01:33:30;;;;;;;25.13;8.45;;;;;;;;;;5095249;28;20032;-73
2021/09/05 01:35:56;;;;;;;16.25;6.88;;;;;;;;;;5092837;28;20023;-72
2021/09/05 01:38:22;;;;;;;14.43;6.07;;;;;;;;;;5092208;28;20349;-73
2021/09/05 01:40:48;;;;;;;16.30;7.43;;;;;;;;;;5099328;28;20034;-73
2021/09/05 01:43:15;;;;;;;15.13;6.88;;;;;;;;;;5095329;28;20027;-73
2021/09/05 01:45:41;;;;;;;13.75;6.45;;;;;;;;;;5099138;28;20379;-73
2021/09/05 01:48:07;;;;;;;15.65;6.60;;;;;;;;;;5095623;28;20399;-74
2021/09/05 01:50:33;;;;;;;16.98;7.15;;;;;;;;;;5094164;28;20032;-73
2021/09/05 01:52:59;;;;;;;16.30;7.07;;;;;;;;;;5095561;28;20057;-74
2021/09/05 01:55:25;;;;;;;16.95;6.93;;;;;;;;;;5093248;28;20095;-69
2021/09/05 01:57:51;;;;;;;17.15;6.95;;;;;;;;;;5094858;28;20226;-73
2021/09/05 02:00:18;;;;;;;19.23;6.93;;;;;;;;;;5091409;28;20047;-72
2021/09/05 02:02:44;;;;;;;17.27;6.68;;;;;;;;;;5093935;28;20540;-73
2021/09/05 02:05:10;;;;;;;17.27;7.03;;;;;;;;;;5091622;28;20077;-73
2021/09/05 02:07:36;;;;;;;18.73;7.15;;;;;;;;;;5091104;28;20020;-73
2021/09/05 02:10:03;;;;;;;13.25;6.35;;;;;;;;;;5087634;28;20047;-73
2021/09/05 02:12:29;;;;;;;15.02;6.35;;;;;;;;;;5095886;28;20090;-73
2021/09/05 02:14:55;;;;;;;16.90;6.35;;;;;;;;;;5091557;28;20046;-73
2021/09/05 02:17:21;;;;;;;14.55;6.70;;;;;;;;;;5095910;28;20439;-73
2021/09/05 02:19:47;;;;;;;23.15;7.22;;;;;;;;;;5092516;28;20380;-74
2021/09/05 02:22:13;;;;;;;22.88;7.50;;;;;;;;;;5092000;28;20099;-73
2021/09/05 02:24:39;;;;;;;17.30;6.85;;;;;;;;;;5092313;28;20028;-73
2021/09/05 02:27:05;;;;;;;15.23;6.70;;;;;;;;;;5093055;28;20024;-72
2021/09/05 02:29:32;;;;;;;15.20;6.97;;;;;;;;;;5093510;28;21381;-74
2021/09/05 02:31:58;;;;;;;18.92;7.13;;;;;;;;;;5091420;28;20086;-74
2021/09/05 02:34:24;;;;;;;14.55;6.63;;;;;;;;;;5093125;28;20151;-73
2021/09/05 02:36:50;;;;;;;19.30;6.93;;;;;;;;;;5091462;28;20016;-73
2021/09/05 02:39:17;;;;;;;15.95;6.40;;;;;;;;;;5093728;28;20036;-73
2021/09/05 02:41:43;;;;;;;16.05;6.75;;;;;;;;;;5089241;28;20040;-74
2021/09/05 02:44:09;;;;;;;16.80;6.13;;;;;;;;;;5093894;28;20030;-71
2021/09/05 02:46:35;;;;;;;17.88;6.82;;;;;;;;;;5097799;28;20035;-73
2021/09/05 02:49:01;;;;;;;14.68;6.60;;;;;;;;;;5093106;28;20483;-73
2021/09/05 02:51:29;;;;;;;18.55;6.53;;;;;;;;;;5092871;28;20456;-74
2021/09/05 02:53:55;;;;;;;16.85;6.80;;;;;;;;;;5092158;28;20036;-74
2021/09/05 02:56:21;;;;;;;12.27;6.40;;;;;;;;;;5093904;28;20073;-74
2021/09/05 02:58:47;;;;;;;14.88;6.72;;;;;;;;;;5099284;28;20075;-73
2021/09/05 03:01:13;;;;;;;13.88;6.93;;;;;;;;;;5094073;28;20018;-73
2021/09/05 03:03:39;;;;;;;15.18;6.75;;;;;;;;;;5093519;28;20042;-72
2021/09/05 03:06:05;;;;;;;14.52;6.88;;;;;;;;;;5076637;28;20032;-73
2021/09/05 03:08:32;;;;;;;20.33;7.47;;;;;;;;;;5092159;28;20114;-70
2021/09/05 03:10:58;;;;;;;17.08;7.15;;;;;;;;;;5093095;28;20024;-74
2021/09/05 03:13:24;;;;;;;17.92;6.50;;;;;;;;;;5090558;28;20499;-74
2021/09/05 03:15:50;;;;;;;16.30;7.13;;;;;;;;;;5091971;28;20030;-74
2021/09/05 03:18:16;;;;;;;15.25;6.82;;;;;;;;;;5088780;28;20116;-74
2021/09/05 03:20:42;;;;;;;18.23;6.93;;;;;;;;;;5093600;28;20027;-73
2021/09/05 03:23:09;;;;;;;14.27;6.78;;;;;;;;;;5089116;28;20043;-72
2021/09/05 03:25:35;;;;;;;19.45;6.85;;;;;;;;;;5091843;28;20297;-74
2021/09/05 03:28:01;;;;;;;16.17;7.35;;;;;;;;;;5091523;28;20024;-73
2021/09/05 03:30:27;;;;;;;16.35;6.70;;;;;;;;;;5095975;28;20032;-74
2021/09/05 03:32:53;;;;;;;14.90;6.15;;;;;;;;;;5098156;28;20032;-73
2021/09/05 03:35:19;;;;;;;13.00;6.57;;;;;;;;;;5079052;28;20047;-72
2021/09/05 03:37:45;;;;;;;13.40;6.72;;;;;;;;;;5094406;28;20107;-74
2021/09/05 03:40:12;;;;;;;15.68;7.13;;;;;;;;;;5095332;28;20211;-72
2021/09/05 03:42:38;;;;;;;18.70;7.07;;;;;;;;;;5094394;28;20024;-74
2021/09/05 03:45:05;;;;;;;17.13;7.32;;;;;;;;;;5096298;28;20028;-74
2021/09/05 03:47:31;;;;;;;16.17;7.30;;;;;;;;;;5092324;28;20031;-74
2021/09/05 03:49:57;;;;;;;22.40;7.00;;;;;;;;;;5095373;28;20463;-74
2021/09/05 03:52:25;;;;;;;13.15;6.72;;;;;;;;;;5102158;28;20020;-74
2021/09/05 03:54:52;;;;;;;21.55;7.57;;;;;;;;;;5095168;28;20104;-73
2021/09/05 03:57:18;;;;;;;16.33;7.18;;;;;;;;;;5093679;28;20023;-74
2021/09/05 03:59:44;;;;;;;15.35;6.45;;;;;;;;;;5094052;28;20027;-72
2021/09/05 04:02:10;;;;;;;15.07;6.78;;;;;;;;;;5095832;28;20064;-74
2021/09/05 04:04:36;;;;;;;18.23;7.35;;;;;;;;;;5091905;28;20279;-73
2021/09/05 04:07:03;;;;;;;15.13;7.47;;;;;;;;;;5094285;28;20016;-72
2021/09/05 04:12:15;;;;;;;17.90;6.93;;;;;;;;;;5096676;28;20031;-74
2021/09/05 04:14:41;;;;;;;20.15;6.70;;;;;;;;;;5091705;28;20036;-73
2021/09/05 04:17:07;;;;;;;19.17;7.35;;;;;;;;;;5095074;28;20028;-73
2021/09/05 04:19:34;;;;;;;17.40;7.70;;;;;;;;;;5091402;28;20016;-74
2021/09/05 04:22:00;;;;;;;13.73;6.95;;;;;;;;;;5095153;28;20026;-73
2021/09/05 04:24:26;;;;;;;14.15;6.82;;;;;;;;;;5075043;28;20407;-73
2021/09/05 04:26:52;;;;;;;13.38;6.95;;;;;;;;;;5093289;28;20024;-72
2021/09/05 04:29:18;;;;;;;15.38;6.70;;;;;;;;;;5095185;28;20028;-73
2021/09/05 04:31:44;;;;;;;15.20;7.47;;;;;;;;;;5092898;28;20570;-74
2021/09/05 04:34:11;;;;;;;15.93;6.82;;;;;;;;;;5091372;28;20089;-75
2021/09/05 04:36:37;;;;;;;16.45;7.47;;;;;;;;;;5096870;28;20024;-73
2021/09/05 04:39:03;;;;;;;16.35;7.13;;;;;;;;;;5092424;28;20043;-74
2021/09/05 04:41:29;;;;;;;18.33;6.70;;;;;;;;;;5097624;28;20019;-74
2021/09/05 04:43:55;;;;;;;18.02;7.25;;;;;;;;;;5092361;28;20032;-71
2021/09/05 04:46:21;;;;;;;16.13;7.28;;;;;;;;;;5093578;28;20028;-74
2021/09/05 04:48:48;;;;;;;13.90;6.97;;;;;;;;;;5094100;28;20020;-74
2021/09/05 04:51:14;;;;;;;11.15;6.35;;;;;;;;;;5093486;28;20270;-73
2021/09/05 04:53:41;;;;;;;15.02;7.65;;;;;;;;;;5095436;28;20027;-74
2021/09/05 04:56:07;;;;;;;20.35;7.20;;;;;;;;;;5093335;28;20384;-73
2021/09/05 04:58:33;;;;;;;19.73;6.93;;;;;;;;;;5093600;28;20032;-74
2021/09/05 05:00:59;;;;;;;20.25;7.47;;;;;;;;;;5094482;28;20016;-74
2021/09/05 05:03:25;;;;;;;23.05;7.40;;;;;;;;;;5093938;28;20035;-71
2021/09/05 05:05:52;;;;;;;12.82;7.38;;;;;;;;;;5093152;28;20020;-74
2021/09/05 05:08:18;;;;;;;16.40;7.45;;;;;;;;;;5092883;28;20028;-74
2021/09/05 05:10:47;;;;;;;18.77;8.00;;;;;;;;;;5095532;28;20040;-73
2021/09/05 05:13:13;;;;;;;16.45;7.07;;;;;;;;;;5090879;28;20511;-73
2021/09/05 05:15:39;;;;;;;21.48;9.10;;;;;;;;;;5094154;28;20023;-72
2021/09/05 05:18:05;;;;;;;20.08;7.78;;;;;;;;;;5090844;28;20051;-74
2021/09/05 05:20:31;;;;;;;16.27;8.02;;;;;;;;;;5095499;28;20054;-74
2021/09/05 05:22:57;;;;;;;15.02;8.07;;;;;;;;;;5092148;28;20027;-74
2021/09/05 05:25:26;;;;;;;13.45;6.88;;;;;;;;;;5094154;28;20038;-74
2021/09/05 05:27:52;;;;;;;14.68;6.68;;;;;;;;;;5091209;28;20091;-74
2021/09/05 05:30:18;;;;;;;15.98;5.95;;;;;;;;;;5092275;28;20042;-73
2021/09/05 05:32:44;;;;;;;16.73;6.40;;;;;;;;;;5095835;28;20016;-74
2021/09/05 05:35:11;;;;;;;9.80;6.25;;;;;;;;;;5091955;28;20024;-74
2021/09/05 05:37:37;;;;;;;17.10;6.97;;;;;;;;;;5090608;28;20271;-74
2021/09/05 05:40:06;;;;;;;19.48;6.93;;;;;;;;;;5094148;28;20024;-74
2021/09/05 05:42:32;;;;;;;12.13;5.35;;;;;;;;;;5091880;28;20016;-74
2021/09/05 05:44:59;;;;;;;9.88;5.93;;;;;;;;;;5092472;28;20909;-75
2021/09/05 05:47:28;;;;;;;10.43;6.05;;;;;;;;;;5092834;28;20280;-74
2021/09/05 05:49:55;;;;;;;9.27;6.22;;;;;;;;;;5092361;28;20016;-74
2021/09/05 05:52:21;;;;;;;16.60;6.75;;;;;;;;;;5092383;28;20020;-74
2021/09/05 05:54:47;;;;;;;12.77;7.00;;;;;;;;;;5092539;28;20381;-74
2021/09/05 05:57:13;;;;;;;15.80;7.53;;;;;;;;;;5074690;28;20384;-75
2021/09/05 05:59:39;;;;;;;15.75;6.97;;;;;;;;;;5090844;28;20024;-74
2021/09/05 06:02:06;;;;;;;12.52;6.40;;;;;;;;;;5093323;28;20028;-73
2021/09/05 06:04:32;;;;;;;14.93;6.78;;;;;;;;;;5089108;28;20050;-73
2021/09/05 06:06:59;;;;;;;15.77;8.38;;;;;;;;;;5092249;28;20023;-74
2021/09/05 06:09:25;;;;;;;19.85;8.98;;;;;;;;;;5089856;28;20530;-74
2021/09/05 06:11:51;;;;;;;14.23;7.38;;;;;;;;;;5075439;28;20106;-74
2021/09/05 06:14:17;;;;;;;13.75;6.60;;;;;;;;;;5090888;28;20032;-74
2021/09/05 06:16:44;;;;;;;13.48;5.78;;;;;;;;;;5089938;28;20020;-75
2021/09/05 06:19:10;;;;;;;11.63;6.10;;;;;;;;;;5092554;28;20024;-73
2021/09/05 06:21:36;;;;;;;17.63;6.60;;;;;;;;;;5089757;28;20032;-70
2021/09/05 06:24:02;;;;;;;15.82;6.57;;;;;;;;;;5094396;28;20064;-74
2021/09/05 06:26:28;;;;;;;15.18;7.32;;;;;;;;;;5089209;28;20103;-74
2021/09/05 06:28:56;;;;;;;15.18;6.47;;;;;;;;;;5090777;28;20039;-74
2021/09/05 06:31:22;;;;;;;12.25;6.38;;;;;;;;;;5090343;28;20161;-74
2021/09/05 06:33:48;;;;;;;13.43;5.53;;;;;;;;;;5090439;28;20032;-74
2021/09/05 06:36:14;;;;;;;17.48;5.07;;;;;;;;;;5092411;28;20034;-74
2021/09/05 06:38:40;;;;;;;15.25;5.93;;;;;;;;;;5090373;28;20019;-74
2021/09/05 06:41:06;;;;;;;15.50;5.45;;;;;;;;;;5083117;28;20032;-74
2021/09/05 06:43:32;;;;;;;13.70;4.85;;;;;;;;;;5083740;28;20085;-73
2021/09/05 06:45:59;;;;;;;15.55;4.40;;;;;;;;;;5070912;28;20024;-75
2021/09/05 06:48:25;;;;;;;21.65;4.72;;;;;;;;;;5086094;28;20020;-72
2021/09/05 06:50:51;;;;;;;13.85;5.65;;;;;;;;;;5087677;28;20024;-74
2021/09/05 06:53:17;;;;;;;10.88;5.15;;;;;;;;;;5086716;28;20036;-74
2021/09/05 06:55:43;;;;;;;12.13;4.60;;;;;;;;;;5082267;28;20152;-74
2021/09/05 06:58:09;;;;;;;17.23;5.90;;;;;;;;;;5083493;28;20444;-74
2021/09/05 07:00:36;;;;;;;15.35;4.97;;;;;;;;;;5083910;28;20111;-72
2021/09/05 07:03:02;;;;;;;8.13;4.72;;;;;;;;;;5083928;28;20027;-74
2021/09/05 07:05:28;;;;;;;9.55;4.25;;;;;;;;;;5091212;28;20098;-74
2021/09/05 07:07:56;;;;;;;15.90;5.13;;;;;;;;;;5086306;28;20017;-71
2021/09/05 07:10:22;;;;;;;9.73;4.03;;;;;;;;;;5094181;28;20083;-74
2021/09/05 07:12:49;;;;;;;10.93;4.53;;;;;;;;;;5093429;28;20020;-74
2021/09/05 07:15:15;;;;;;;11.50;5.10;;;;;;;;;;5097254;28;20027;-74
2021/09/05 07:17:41;;;;;;;12.23;4.60;;;;;;;;;;5093815;28;20085;-74
2021/09/05 07:20:07;;;;;;;14.77;4.75;;;;;;;;;;5075740;28;20058;-73
2021/09/05 07:22:34;;;;;;;14.50;5.07;;;;;;;;;;5074633;28;20379;-74
2021/09/05 07:25:02;;;;;;;14.88;4.85;;;;;;;;;;5090263;28;20027;-72
2021/09/05 07:27:29;;;;;;;16.08;4.93;;;;;;;;;;5093191;28;20466;-74
2021/09/05 07:29:55;;;;;;;15.20;5.35;;;;;;;;;;5092273;28;20030;-74
2021/09/05 07:32:21;;;;;;;28.90;5.45;;;;;;;;;;5095156;28;20028;-74
2021/09/05 07:34:47;;;;;;;10.35;4.50;;;;;;;;;;5100543;28;20076;-71
2021/09/05 07:37:14;;;;;;;18.17;5.55;;;;;;;;;;5098749;28;20019;-74
2021/09/05 07:39:40;;;;;;;12.68;5.68;;;;;;;;;;5100424;28;20024;-74
2021/09/05 07:42:07;;;;;;;16.42;5.47;;;;;;;;;;5098626;28;20024;-74
2021/09/05 07:44:33;;;;;;;9.38;4.97;;;;;;;;;;5095405;28;20160;-73
2021/09/05 07:46:59;;;;;;;18.35;5.80;;;;;;;;;;5098827;27;20517;-74
2021/09/05 07:49:26;;;;;;;26.85;5.90;;;;;;;;;;5098299;28;20032;-70
2021/09/05 07:51:52;;;;;;;13.55;5.32;;;;;;;;;;5096838;28;20035;-73
2021/09/05 07:54:18;;;;;;;19.90;6.07;;;;;;;;;;5090853;28;20040;-75
2021/09/05 07:56:44;;;;;;;14.63;5.07;;;;;;;;;;5089322;27;20016;-72
2021/09/05 07:59:11;;;;;;;12.15;4.80;;;;;;;;;;5088215;28;20024;-74
2021/09/05 08:01:37;;;;;;;17.35;6.28;;;;;;;;;;5087690;28;20023;-73
2021/09/05 08:04:03;;;;;;;16.90;6.05;;;;;;;;;;5090017;28;20030;-74
2021/09/05 08:06:29;;;;;;;22.40;8.13;;;;;;;;;;5086832;28;20031;-74
2021/09/05 08:08:57;;;;;;;14.18;7.13;;;;;;;;;;5092130;28;20144;-74
2021/09/05 08:11:23;;;;;;;10.60;5.05;;;;;;;;;;5069138;28;20394;-73
2021/09/05 08:13:50;;;;;;;12.25;5.18;;;;;;;;;;5088625;28;20028;-74
2021/09/05 08:16:16;;;;;;;22.27;6.15;;;;;;;;;;5086681;28;20020;-73
2021/09/05 08:18:42;;;;;;;11.85;4.70;;;;;;;;;;5086078;28;20075;-74
2021/09/05 08:21:09;;;;;;;13.27;4.68;;;;;;;;;;5086656;28;20077;-74
2021/09/05 08:23:36;;;;;;;17.70;5.53;;;;;;;;;;5088059;28;20031;-71
2021/09/05 08:26:04;;;;;;;13.75;5.20;;;;;;;;;;5092258;28;20024;-74
2021/09/05 08:28:30;;;;;;;11.18;4.20;;;;;;;;;;5092360;28;20059;-74
2021/09/05 08:30:56;;;;;;;11.77;4.60;;;;;;;;;;5078538;28;20766;-72
2021/09/05 08:33:22;;;;;;;14.65;4.60;;;;;;;;;;5091578;28;20520;-74
2021/09/05 08:35:48;;;;;;;11.80;4.63;;;;;;;;;;5090120;28;20121;-74
2021/09/05 08:38:15;;;;;;;13.88;4.95;;;;;;;;;;5095854;28;20029;-73
2021/09/05 08:40:43;;;;;;;13.68;5.15;;;;;;;;;;5091586;28;20051;-74
2021/09/05 08:43:10;;;;;;;9.23;4.18;;;;;;;;;;5087402;28;20057;-74
2021/09/05 08:45:36;;;;;;;13.07;4.65;;;;;;;;;;5090136;28;20034;-72
2021/09/05 08:48:03;;;;;;;13.98;4.95;;;;;;;;;;5091037;28;20042;-72
2021/09/05 08:50:30;;;;;;;14.02;4.70;;;;;;;;;;5091406;28;20216;-74
2021/09/05 08:52:56;;;;;;;13.52;4.47;;;;;;;;;;5090600;28;20031;-73
2021/09/05 08:55:22;;;;;;;13.60;4.22;;;;;;;;;;5089229;28;20499;-74
2021/09/05 08:57:49;;;;;;;11.00;4.47;;;;;;;;;;5094225;28;20084;-72
2021/09/05 09:00:15;;;;;;;7.95;4.40;;;;;;;;;;5094395;28;20024;-74
2021/09/05 09:02:53;;;;;;;10.48;4.35;;;;;;;;;;5088314;28;20026;-73
2021/09/05 09:05:38;;;;;;;13.13;4.22;;;;;;;;;;5087257;28;20024;-72
2021/09/05 09:08:05;;;;;;;13.48;4.47;;;;;;;;;;5089593;28;20026;-71
2021/09/05 09:10:32;;;;;;;12.45;4.47;;;;;;;;;;5086367;28;20125;-74
2021/09/05 09:12:58;;;;;;;8.77;3.88;;;;;;;;;;5084963;28;20292;-73
2021/09/05 09:15:42;;;;;;;10.27;4.05;;;;;;;;;;5087514;28;20020;-74
2021/09/05 09:18:08;;;;;;;14.90;4.18;;;;;;;;;;5086505;28;20064;-74
2021/09/05 09:20:37;;;;;;;10.50;4.03;;;;;;;;;;5072911;28;20024;-72
2021/09/05 09:23:24;;;;;;;12.68;4.28;;;;;;;;;;5086060;28;20051;-73
2021/09/05 09:26:06;;;;;;;12.35;3.97;;;;;;;;;;5086385;28;20568;-73
2021/09/05 09:28:38;;;;;;;16.10;5.22;;;;;;;;;;5085241;28;20028;-72
2021/09/05 09:31:05;;;;;;;11.25;4.32;;;;;;;;;;5097702;27;20471;-74
2021/09/05 09:33:32;;;;;;;18.27;4.25;;;;;;;;;;5087722;28;20484;-73
2021/09/05 09:35:59;;;;;;;13.23;3.90;;;;;;;;;;5086737;28;20454;-73
2021/09/05 09:38:26;;;;;;;12.27;4.40;;;;;;;;;;5089294;28;20024;-73
2021/09/05 09:41:04;;;;;;;8.80;4.07;;;;;;;;;;5093633;28;20036;-73
2021/09/05 09:43:30;;;;;;;11.30;3.92;;;;;;;;;;5087168;28;20543;-74
2021/09/05 09:46:10;;;;;;;16.20;4.88;;;;;;;;;;5089225;28;20042;-73
2021/09/05 09:48:41;;;;;;;9.43;3.58;;;;;;;;;;5092357;28;20024;-74
2021/09/05 09:51:08;;;;;;;11.80;4.10;;;;;;;;;;5088748;28;20042;-73
2021/09/05 09:53:35;;;;;;;14.80;4.97;;;;;;;;;;5091520;28;20032;-73
2021/09/05 09:56:02;;;;;;;11.95;4.03;;;;;;;;;;5088326;28;20028;-73
2021/09/05 09:58:28;;;;;;;7.05;3.60;;;;;;;;;;5077769;28;20027;-70
2021/09/05 10:00:54;;;;;;;9.77;3.40;;;;;;;;;;5089199;28;20041;-74
2021/09/05 10:03:21;;;;;;;11.27;4.20;;;;;;;;;;5089888;28;20058;-74
2021/09/05 10:05:47;;;;;;;12.32;3.88;;;;;;;;;;5070779;28;20335;-73
2021/09/05 10:08:14;;;;;;;16.15;4.28;;;;;;;;;;5089200;28;20024;-74
2021/09/05 10:10:40;;;;;;;10.43;3.47;;;;;;;;;;5092527;28;20043;-74
2021/09/05 10:13:07;;;;;;;10.55;3.90;;;;;;;;;;5088570;28;20038;-71
2021/09/05 10:15:35;;;;;;;11.43;4.22;;;;;;;;;;5093660;28;20139;-75
2021/09/05 10:18:01;;;;;;;12.98;3.50;;;;;;;;;;5086758;28;20471;-74
2021/09/05 10:20:27;;;;;;;14.85;3.80;;;;;;;;;;5094155;28;20020;-74
2021/09/05 10:22:54;;;;;;;15.35;3.85;;;;;;;;;;5089810;28;20065;-74
2021/09/05 10:25:21;;;;;;;11.63;3.63;;;;;;;;;;5091998;28;20493;-74
2021/09/05 10:27:49;;;;;;;14.02;3.63;;;;;;;;;;5090145;28;20525;-74
2021/09/05 10:30:19;;;;;;;8.95;3.50;;;;;;;;;;5092199;28;20051;-72
2021/09/05 10:32:47;;;;;;;8.23;3.83;;;;;;;;;;5092457;28;20081;-74
2021/09/05 10:35:25;;;;;;;10.98;3.95;;;;;;;;;;5093483;28;20019;-74
2021/09/05 10:38:21;;;;;;;6.80;3.38;;;;;;;;;;5092112;28;20023;-74
2021/09/05 10:40:47;;;;;;;15.48;3.60;;;;;;;;;;5078006;28;20085;-71
2021/09/05 10:43:14;;;;;;;10.70;3.95;;;;;;;;;;5091308;28;20107;-73
2021/09/05 10:45:42;;;;;;;10.07;4.20;;;;;;;;;;5092021;28;20028;-70
2021/09/05 10:48:27;;;;;;;8.57;3.30;;;;;;;;;;5091536;28;20030;-74
2021/09/05 10:50:53;;;;;;;10.73;3.25;;;;;;;;;;5085902;28;20035;-74
2021/09/05 10:53:20;;;;;;;9.65;3.65;;;;;;;;;;5091968;28;20031;-72
2021/09/05 10:56:06;;;;;;;9.43;3.58;;;;;;;;;;5093336;28;20036;-72
2021/09/05 10:58:39;;;;;;;8.80;3.35;;;;;;;;;;5089498;28;20035;-74
2021/09/05 11:01:11;;;;;;;7.32;3.25;;;;;;;;;;5087192;28;20024;-74
2021/09/05 11:03:56;;;;;;;12.45;3.53;;;;;;;;;;5092963;28;20036;-74
2021/09/05 11:06:32;;;;;;;7.32;3.25;;;;;;;;;;5087178;28;20529;-72
2021/09/05 11:09:22;;;;;;;8.15;3.50;;;;;;;;;;5090191;28;20487;-72
2021/09/05 11:12:07;;;;;;;10.07;3.30;;;;;;;;;;5088309;28;20040;-74
2021/09/05 11:14:36;;;;;;;8.95;3.55;;;;;;;;;;5087359;28;20483;-74
2021/09/05 11:17:02;;;;;;;7.65;3.00;;;;;;;;;;5092284;28;20406;-74
2021/09/05 11:19:28;;;;;;;7.03;2.53;;;;;;;;;;5090147;28;20416;-74
2021/09/05 11:21:55;;;;;;;9.68;3.47;;;;;;;;;;5091748;28;20032;-74
2021/09/05 11:24:21;;;;;;;9.55;3.63;;;;;;;;;;5091627;28;20365;-74
2021/09/05 11:27:00;;;;;;;8.35;3.35;;;;;;;;;;5089276;28;20188;-74
2021/09/05 11:29:26;;;;;;;8.15;3.50;;;;;;;;;;5089288;28;20024;-72
2021/09/05 11:31:52;;;;;;;8.73;3.58;;;;;;;;;;5093138;28;20061;-74
2021/09/05 11:34:18;;;;;;;9.32;3.50;;;;;;;;;;5090836;28;20051;-74
2021/09/05 11:36:45;;;;;;;8.60;4.05;;;;;;;;;;5092189;28;20035;-74
2021/09/05 11:39:11;;;;;;;9.52;3.38;;;;;;;;;;5087295;28;20460;-74
2021/09/05 11:41:37;;;;;;;5.95;3.50;;;;;;;;;;5092159;28;20024;-73
2021/09/05 11:44:03;;;;;;;10.20;3.78;;;;;;;;;;5088121;28;20360;-74
2021/09/05 11:46:29;;;;;;;11.70;3.83;;;;;;;;;;5090933;28;20016;-74
2021/09/05 11:48:56;;;;;;;10.07;3.92;;;;;;;;;;5091228;28;20021;-74
2021/09/05 11:51:22;;;;;;;10.35;3.58;;;;;;;;;;5095349;28;20160;-74
2021/09/05 11:54:02;;;;;;;13.23;3.72;;;;;;;;;;5093993;28;20039;-74
2021/09/05 11:56:31;;;;;;;10.15;4.00;;;;;;;;;;5095588;28;20024;-74
2021/09/05 11:59:10;;;;;;;10.50;3.70;;;;;;;;;;5092235;28;20531;-74
2021/09/05 12:01:37;;;;;;;11.65;4.30;;;;;;;;;;5096004;28;20040;-73
2021/09/05 12:04:03;;;;;;;13.27;4.82;;;;;;;;;;5093372;28;20167;-73
2021/09/05 12:06:29;;;;;;;12.23;4.53;;;;;;;;;;5096110;28;20039;-73
2021/09/05 12:08:56;;;;;;;10.30;3.55;;;;;;;;;;5095895;28;20032;-73
2021/09/05 12:11:22;;;;;;;10.52;3.40;;;;;;;;;;5078039;28;20032;-73
2021/09/05 12:13:54;;;;;;;9.23;4.22;;;;;;;;;;5097634;28;20040;-72
2021/09/05 12:16:22;;;;;;;9.73;3.30;;;;;;;;;;5092544;28;20044;-74
2021/09/05 12:19:00;;;;;;;10.95;3.22;;;;;;;;;;5095283;28;20031;-73
2021/09/05 12:21:30;;;;;;;7.95;2.95;;;;;;;;;;5094356;28;20020;-73
2021/09/05 12:23:56;;;;;;;10.38;3.13;;;;;;;;;;5096446;28;20030;-74
2021/09/05 12:26:22;;;;;;;6.97;3.13;;;;;;;;;;5092513;28;20121;-74
2021/09/05 12:28:59;;;;;;;8.38;3.60;;;;;;;;;;5094959;28;20271;-73
2021/09/05 12:31:40;;;;;;;11.93;3.28;;;;;;;;;;5094669;28;20047;-73
2021/09/05 12:34:06;;;;;;;10.43;3.28;;;;;;;;;;5092543;28;20849;-73
2021/09/05 12:36:32;;;;;;;6.38;2.63;;;;;;;;;;5097626;28;20054;-72
2021/09/05 12:38:59;;;;;;;10.07;3.15;;;;;;;;;;5092436;28;20020;-73
2021/09/05 12:41:29;;;;;;;11.57;3.28;;;;;;;;;;5095651;28;20512;-73
2021/09/05 12:43:57;;;;;;;13.75;3.60;;;;;;;;;;5093784;28;20494;-73
2021/09/05 12:46:25;;;;;;;10.20;2.85;;;;;;;;;;5077815;28;20349;-73
2021/09/05 12:48:52;;;;;;;7.57;2.88;;;;;;;;;;5091619;28;20366;-72
2021/09/05 12:51:20;;;;;;;8.18;3.10;;;;;;;;;;5092986;28;20039;-72
2021/09/05 12:53:53;;;;;;;11.98;3.75;;;;;;;;;;5093926;28;20059;-74
2021/09/05 12:56:19;;;;;;;8.20;3.15;;;;;;;;;;5090284;28;20016;-71
2021/09/05 12:58:45;;;;;;;6.30;2.92;;;;;;;;;;5090680;28;20024;-73
2021/09/05 13:01:22;;;;;;;11.52;3.20;;;;;;;;;;5090934;28;20020;-74
2021/09/05 13:03:48;;;;;;;9.18;3.10;;;;;;;;;;5093924;28;20031;-74
2021/09/05 13:06:14;;;;;;;12.82;3.42;;;;;;;;;;5091286;28;20342;-72
2021/09/05 13:08:41;;;;;;;9.48;2.78;;;;;;;;;;5092504;28;20024;-72
2021/09/05 13:11:07;;;;;;;8.50;2.53;;;;;;;;;;5093883;28;20024;-73
2021/09/05 13:13:33;;;;;;;7.38;2.40;;;;;;;;;;5091448;28;20079;-74
2021/09/05 13:15:59;;;;;;;9.77;2.85;;;;;;;;;;5078537;28;20546;-73
2021/09/05 13:18:25;;;;;;;11.95;3.33;;;;;;;;;;5091007;28;20039;-74
2021/09/05 13:20:51;;;;;;;7.28;2.78;;;;;;;;;;5094992;28;20034;-74
2021/09/05 13:23:17;;;;;;;6.55;2.60;;;;;;;;;;5088787;28;20044;-71
2021/09/05 13:25:43;;;;;;;8.10;2.53;;;;;;;;;;5093213;28;20023;-74
2021/09/05 13:28:10;;;;;;;11.00;2.90;;;;;;;;;;5089066;28;20032;-74
2021/09/05 13:30:36;;;;;;;10.07;2.92;;;;;;;;;;5093020;28;20391;-73
2021/09/05 13:33:02;;;;;;;5.43;2.00;;;;;;;;;;5094774;28;20050;-73
2021/09/05 13:35:28;;;;;;;8.07;2.78;;;;;;;;;;5090769;28;20034;-74
2021/09/05 13:37:54;;;;;;;7.40;2.20;;;;;;;;;;5075140;28;20059;-70
2021/09/05 13:40:20;;;;;;;5.63;3.10;;;;;;;;;;5091482;28;20032;-74
2021/09/05 13:42:47;;;;;;;8.70;2.60;;;;;;;;;;5092755;28;20028;-74
2021/09/05 13:45:13;;;;;;;10.00;2.47;;;;;;;;;;5085359;28;20486;-73
2021/09/05 13:47:39;;;;;;;10.85;2.58;;;;;;;;;;5091043;28;20036;-75
2021/09/05 13:50:06;;;;;;;7.60;2.33;;;;;;;;;;5089597;28;20012;-73
2021/09/05 13:52:32;;;;;;;6.68;2.40;;;;;;;;;;5088098;28;20103;-73
2021/09/05 13:54:59;;;;;;;10.13;2.70;;;;;;;;;;5092702;28;20027;-74
2021/09/05 13:57:26;;;;;;;7.65;2.78;;;;;;;;;;5090688;27;20031;-74
2021/09/05 13:59:52;;;;;;;7.60;2.15;;;;;;;;;;5090787;28;20691;-74
2021/09/05 14:02:19;;;;;;;7.95;2.42;;;;;;;;;;5093187;28;20027;-74
2021/09/05 14:04:45;;;;;;;9.23;2.50;;;;;;;;;;5091876;28;20036;-75
2021/09/05 14:07:11;;;;;;;10.73;2.80;;;;;;;;;;5090837;28;20020;-71
2021/09/05 14:09:37;;;;;;;8.63;2.80;;;;;;;;;;5077014;28;20076;-73
2021/09/05 14:12:04;;;;;;;7.28;2.60;;;;;;;;;;5069541;28;20111;-73
2021/09/05 14:14:30;;;;;;;7.28;2.25;;;;;;;;;;5072557;28;20041;-74
2021/09/05 14:16:56;;;;;;;11.43;2.35;;;;;;;;;;5063848;28;20507;-74
2021/09/05 14:19:23;;;;;;;9.25;2.58;;;;;;;;;;5068028;28;20469;-73
2021/09/05 14:21:49;;;;;;;9.07;2.17;;;;;;;;;;5067814;28;20077;-74
2021/09/05 14:24:15;;;;;;;7.78;2.40;;;;;;;;;;5065696;28;20329;-74
2021/09/05 14:26:42;;;;;;;11.20;3.00;;;;;;;;;;5067207;28;20107;-73
2021/09/05 14:29:18;;;;;;;8.30;2.72;;;;;;;;;;5071068;28;20031;-74
2021/09/05 14:48:18;;;;;;;6.82;2.33;;;;;;;;;;5067642;28;20389;-72
2021/09/05 14:56:13;;;;;;;8.15;2.40;;;;;;;;;;5063687;28;20055;-74
2021/09/05 14:58:48;;;;;;;10.15;3.20;;;;;;;;;;5065012;28;20016;-72